sensor_id;sensor_type;location;lat;lon;timestamp;P1;durP1;ratioP1;P2;durP2;ratioP2
13708;SDS011;54933;51.908;7.730;2022-12-10T00:00:22;3.80;;;3.10;;
13708;SDS011;54933;51.908;7.730;2022-12-10T00:02:47;3.37;;;2.80;;
13708;SDS011;54933;51.908;7.730;2022-12-10T00:05:13;3.63;;;2.60;;
13708;SDS011;54933;51.908;7.730;2022-12-10T00:07:38;3.73;;;2.87;;
13708;SDS011;54933;51.908;7.730;2022-12-10T00:10:03;2.70;;;2.50;;
13708;SDS011;54933;51.908;7.730;2022-12-10T00:12:29;3.80;;;2.97;;
13708;SDS011;54933;51.908;7.730;2022-12-10T00:14:54;3.37;;;2.63;;
13708;SDS011;54933;51.908;7.730;2022-12-10T00:17:19;5.00;;;2.97;;
13708;SDS011;54933;51.908;7.730;2022-12-10T00:19:45;3.73;;;2.97;;
13708;SDS011;54933;51.908;7.730;2022-12-10T00:22:10;3.17;;;2.63;;
13708;SDS011;54933;51.908;7.730;2022-12-10T00:24:35;3.80;;;3.40;;
13708;SDS011;54933;51.908;7.730;2022-12-10T00:27:00;3.00;;;2.50;;
13708;SDS011;54933;51.908;7.730;2022-12-10T00:29:26;3.83;;;3.20;;
13708;SDS011;54933;51.908;7.730;2022-12-10T00:31:51;4.00;;;3.07;;
13708;SDS011;54933;51.908;7.730;2022-12-10T00:34:16;3.57;;;2.73;;
13708;SDS011;54933;51.908;7.730;2022-12-10T00:36:43;3.07;;;2.87;;
13708;SDS011;54933;51.908;7.730;2022-12-10T00:39:11;3.23;;;2.93;;
13708;SDS011;54933;51.908;7.730;2022-12-10T00:41:38;3.00;;;2.63;;
13708;SDS011;54933;51.908;7.730;2022-12-10T00:44:04;3.13;;;2.67;;
13708;SDS011;54933;51.908;7.730;2022-12-10T00:46:29;3.27;;;2.97;;
13708;SDS011;54933;51.908;7.730;2022-12-10T00:48:55;3.47;;;2.80;;
13708;SDS011;54933;51.908;7.730;2022-12-10T00:51:22;2.93;;;2.73;;
13708;SDS011;54933;51.908;7.730;2022-12-10T00:53:50;2.93;;;2.63;;
13708;SDS011;54933;51.908;7.730;2022-12-10T00:56:18;2.57;;;2.37;;
13708;SDS011;54933;51.908;7.730;2022-12-10T00:58:48;3.03;;;2.50;;
13708;SDS011;54933;51.908;7.730;2022-12-10T01:01:33;2.60;;;2.40;;
13708;SDS011;54933;51.908;7.730;2022-12-10T01:04:02;3.63;;;2.70;;
13708;SDS011;54933;51.908;7.730;2022-12-10T01:06:33;4.83;;;2.87;;
13708;SDS011;54933;51.908;7.730;2022-12-10T01:09:02;3.13;;;2.73;;
13708;SDS011;54933;51.908;7.730;2022-12-10T01:11:33;2.40;;;2.20;;
13708;SDS011;54933;51.908;7.730;2022-12-10T01:14:00;3.00;;;2.70;;
13708;SDS011;54933;51.908;7.730;2022-12-10T01:16:26;2.80;;;2.47;;
13708;SDS011;54933;51.908;7.730;2022-12-10T01:18:52;2.47;;;2.30;;
13708;SDS011;54933;51.908;7.730;2022-12-10T01:21:19;2.50;;;2.30;;
13708;SDS011;54933;51.908;7.730;2022-12-10T01:23:45;2.40;;;2.20;;
13708;SDS011;54933;51.908;7.730;2022-12-10T01:26:14;2.97;;;2.67;;
13708;SDS011;54933;51.908;7.730;2022-12-10T01:28:41;2.60;;;2.37;;
13708;SDS011;54933;51.908;7.730;2022-12-10T01:31:16;2.17;;;2.03;;
13708;SDS011;54933;51.908;7.730;2022-12-10T01:33:41;2.53;;;2.20;;
13708;SDS011;54933;51.908;7.730;2022-12-10T01:36:12;2.67;;;2.47;;
13708;SDS011;54933;51.908;7.730;2022-12-10T01:38:39;2.03;;;1.93;;
13708;SDS011;54933;51.908;7.730;2022-12-10T01:41:05;2.47;;;2.23;;
13708;SDS011;54933;51.908;7.730;2022-12-10T01:43:48;2.60;;;2.40;;
13708;SDS011;54933;51.908;7.730;2022-12-10T01:46:19;2.90;;;2.17;;
13708;SDS011;54933;51.908;7.730;2022-12-10T01:48:45;2.20;;;2.10;;
13708;SDS011;54933;51.908;7.730;2022-12-10T01:51:11;3.13;;;2.00;;
13708;SDS011;54933;51.908;7.730;2022-12-10T01:53:38;2.40;;;2.20;;
13708;SDS011;54933;51.908;7.730;2022-12-10T01:56:04;2.40;;;2.20;;
13708;SDS011;54933;51.908;7.730;2022-12-10T01:58:29;2.13;;;2.00;;
13708;SDS011;54933;51.908;7.730;2022-12-10T02:03:29;2.47;;;2.27;;
13708;SDS011;54933;51.908;7.730;2022-12-10T02:06:25;2.57;;;2.37;;
13708;SDS011;54933;51.908;7.730;2022-12-10T02:11:31;1.90;;;1.80;;
13708;SDS011;54933;51.908;7.730;2022-12-10T02:14:03;2.30;;;2.10;;
13708;SDS011;54933;51.908;7.730;2022-12-10T02:16:38;2.17;;;1.80;;
13708;SDS011;54933;51.908;7.730;2022-12-10T02:19:09;2.30;;;1.93;;
13708;SDS011;54933;51.908;7.730;2022-12-10T02:21:45;2.00;;;1.90;;
13708;SDS011;54933;51.908;7.730;2022-12-10T02:24:15;1.80;;;1.70;;
13708;SDS011;54933;51.908;7.730;2022-12-10T02:26:53;1.97;;;1.83;;
13708;SDS011;54933;51.908;7.730;2022-12-10T02:29:32;2.17;;;1.73;;
13708;SDS011;54933;51.908;7.730;2022-12-10T02:34:30;2.10;;;2.00;;
13708;SDS011;54933;51.908;7.730;2022-12-10T02:37:00;3.00;;;1.90;;
13708;SDS011;54933;51.908;7.730;2022-12-10T02:39:30;1.70;;;1.60;;
13708;SDS011;54933;51.908;7.730;2022-12-10T02:42:00;3.20;;;1.90;;
13708;SDS011;54933;51.908;7.730;2022-12-10T02:44:29;1.73;;;1.63;;
13708;SDS011;54933;51.908;7.730;2022-12-10T02:46:57;1.77;;;1.67;;
13708;SDS011;54933;51.908;7.730;2022-12-10T02:49:23;1.83;;;1.73;;
13708;SDS011;54933;51.908;7.730;2022-12-10T02:51:50;1.80;;;1.70;;
13708;SDS011;54933;51.908;7.730;2022-12-10T02:57:06;1.83;;;1.73;;
13708;SDS011;54933;51.908;7.730;2022-12-10T02:59:57;2.20;;;2.00;;
13708;SDS011;54933;51.908;7.730;2022-12-10T03:05:48;1.97;;;1.60;;
13708;SDS011;54933;51.908;7.730;2022-12-10T03:08:50;1.70;;;1.60;;
13708;SDS011;54933;51.908;7.730;2022-12-10T03:11:21;1.70;;;1.60;;
13708;SDS011;54933;51.908;7.730;2022-12-10T03:13:58;1.77;;;1.67;;
13708;SDS011;54933;51.908;7.730;2022-12-10T03:17:12;1.67;;;1.57;;
13708;SDS011;54933;51.908;7.730;2022-12-10T03:19:33;1.57;;;1.47;;
13708;SDS011;54933;51.908;7.730;2022-12-10T03:22:02;1.60;;;1.50;;
13708;SDS011;54933;51.908;7.730;2022-12-10T03:24:28;1.53;;;1.43;;
13708;SDS011;54933;51.908;7.730;2022-12-10T03:26:56;1.77;;;1.57;;
13708;SDS011;54933;51.908;7.730;2022-12-10T03:29:26;2.20;;;1.87;;
13708;SDS011;54933;51.908;7.730;2022-12-10T03:31:53;1.70;;;1.60;;
13708;SDS011;54933;51.908;7.730;2022-12-10T03:34:19;1.90;;;1.80;;
13708;SDS011;54933;51.908;7.730;2022-12-10T03:36:46;2.10;;;1.90;;
13708;SDS011;54933;51.908;7.730;2022-12-10T03:39:12;1.70;;;1.60;;
13708;SDS011;54933;51.908;7.730;2022-12-10T03:41:38;1.83;;;1.73;;
13708;SDS011;54933;51.908;7.730;2022-12-10T03:44:03;1.47;;;1.37;;
13708;SDS011;54933;51.908;7.730;2022-12-10T03:46:29;1.70;;;1.60;;
13708;SDS011;54933;51.908;7.730;2022-12-10T03:48:56;1.53;;;1.43;;
13708;SDS011;54933;51.908;7.730;2022-12-10T03:51:22;1.27;;;1.27;;
13708;SDS011;54933;51.908;7.730;2022-12-10T03:53:48;1.33;;;1.23;;
13708;SDS011;54933;51.908;7.730;2022-12-10T03:56:16;2.07;;;1.70;;
13708;SDS011;54933;51.908;7.730;2022-12-10T03:58:43;1.73;;;1.63;;
13708;SDS011;54933;51.908;7.730;2022-12-10T04:01:08;1.70;;;1.60;;
13708;SDS011;54933;51.908;7.730;2022-12-10T04:03:34;1.70;;;1.60;;
13708;SDS011;54933;51.908;7.730;2022-12-10T04:06:02;1.40;;;1.40;;
13708;SDS011;54933;51.908;7.730;2022-12-10T04:08:29;1.57;;;1.47;;
13708;SDS011;54933;51.908;7.730;2022-12-10T04:10:54;1.83;;;1.70;;
13708;SDS011;54933;51.908;7.730;2022-12-10T04:13:19;1.77;;;1.67;;
13708;SDS011;54933;51.908;7.730;2022-12-10T04:16:03;1.20;;;1.20;;
13708;SDS011;54933;51.908;7.730;2022-12-10T04:18:47;1.50;;;1.40;;
13708;SDS011;54933;51.908;7.730;2022-12-10T04:21:12;1.20;;;1.20;;
13708;SDS011;54933;51.908;7.730;2022-12-10T04:23:56;1.67;;;1.57;;
13708;SDS011;54933;51.908;7.730;2022-12-10T04:26:40;1.60;;;1.50;;
13708;SDS011;54933;51.908;7.730;2022-12-10T04:29:18;1.67;;;1.57;;
13708;SDS011;54933;51.908;7.730;2022-12-10T04:31:54;3.43;;;1.80;;
13708;SDS011;54933;51.908;7.730;2022-12-10T04:34:20;2.50;;;1.30;;
13708;SDS011;54933;51.908;7.730;2022-12-10T04:36:46;1.40;;;1.30;;
13708;SDS011;54933;51.908;7.730;2022-12-10T04:39:12;1.20;;;1.20;;
13708;SDS011;54933;51.908;7.730;2022-12-10T04:41:39;1.73;;;1.63;;
13708;SDS011;54933;51.908;7.730;2022-12-10T04:44:05;1.57;;;1.47;;
13708;SDS011;54933;51.908;7.730;2022-12-10T04:46:30;1.53;;;1.40;;
13708;SDS011;54933;51.908;7.730;2022-12-10T04:48:55;1.23;;;1.23;;
13708;SDS011;54933;51.908;7.730;2022-12-10T04:51:20;1.50;;;1.30;;
13708;SDS011;54933;51.908;7.730;2022-12-10T04:53:46;1.50;;;1.43;;
13708;SDS011;54933;51.908;7.730;2022-12-10T04:56:11;1.37;;;1.27;;
13708;SDS011;54933;51.908;7.730;2022-12-10T04:58:36;1.27;;;1.20;;
13708;SDS011;54933;51.908;7.730;2022-12-10T05:01:06;1.20;;;1.20;;
13708;SDS011;54933;51.908;7.730;2022-12-10T05:03:34;1.47;;;1.37;;
13708;SDS011;54933;51.908;7.730;2022-12-10T05:06:00;1.63;;;1.53;;
13708;SDS011;54933;51.908;7.730;2022-12-10T05:08:30;1.30;;;1.30;;
13708;SDS011;54933;51.908;7.730;2022-12-10T05:11:00;1.43;;;1.33;;
13708;SDS011;54933;51.908;7.730;2022-12-10T05:13:29;1.60;;;1.50;;
13708;SDS011;54933;51.908;7.730;2022-12-10T05:15:54;1.60;;;1.50;;
13708;SDS011;54933;51.908;7.730;2022-12-10T05:18:20;1.43;;;1.20;;
13708;SDS011;54933;51.908;7.730;2022-12-10T05:20:45;1.40;;;1.30;;
13708;SDS011;54933;51.908;7.730;2022-12-10T05:23:10;1.53;;;1.47;;
13708;SDS011;54933;51.908;7.730;2022-12-10T05:26:06;1.23;;;1.23;;
13708;SDS011;54933;51.908;7.730;2022-12-10T05:28:35;1.30;;;1.20;;
13708;SDS011;54933;51.908;7.730;2022-12-10T05:31:22;1.67;;;1.57;;
13708;SDS011;54933;51.908;7.730;2022-12-10T05:33:52;2.97;;;1.20;;
13708;SDS011;54933;51.908;7.730;2022-12-10T05:36:23;1.40;;;1.40;;
13708;SDS011;54933;51.908;7.730;2022-12-10T05:38:50;1.47;;;1.47;;
13708;SDS011;54933;51.908;7.730;2022-12-10T05:41:20;1.60;;;1.50;;
13708;SDS011;54933;51.908;7.730;2022-12-10T05:43:47;1.70;;;1.60;;
13708;SDS011;54933;51.908;7.730;2022-12-10T05:46:14;1.40;;;1.30;;
13708;SDS011;54933;51.908;7.730;2022-12-10T05:48:41;1.43;;;1.33;;
13708;SDS011;54933;51.908;7.730;2022-12-10T05:51:08;1.07;;;1.07;;
13708;SDS011;54933;51.908;7.730;2022-12-10T05:53:34;1.53;;;1.43;;
13708;SDS011;54933;51.908;7.730;2022-12-10T05:56:00;1.17;;;1.17;;
13708;SDS011;54933;51.908;7.730;2022-12-10T05:58:27;1.03;;;0.93;;
13708;SDS011;54933;51.908;7.730;2022-12-10T06:00:54;1.50;;;1.40;;
13708;SDS011;54933;51.908;7.730;2022-12-10T06:03:20;1.33;;;1.23;;
13708;SDS011;54933;51.908;7.730;2022-12-10T06:05:45;1.50;;;1.40;;
13708;SDS011;54933;51.908;7.730;2022-12-10T06:08:10;1.30;;;1.20;;
13708;SDS011;54933;51.908;7.730;2022-12-10T06:10:36;1.40;;;1.40;;
13708;SDS011;54933;51.908;7.730;2022-12-10T06:13:02;1.50;;;1.40;;
13708;SDS011;54933;51.908;7.730;2022-12-10T06:15:27;1.47;;;1.47;;
13708;SDS011;54933;51.908;7.730;2022-12-10T06:17:54;1.47;;;1.40;;
13708;SDS011;54933;51.908;7.730;2022-12-10T06:20:19;1.50;;;1.40;;
13708;SDS011;54933;51.908;7.730;2022-12-10T06:22:45;1.17;;;1.17;;
13708;SDS011;54933;51.908;7.730;2022-12-10T06:25:10;1.10;;;1.10;;
13708;SDS011;54933;51.908;7.730;2022-12-10T06:27:35;1.60;;;1.50;;
13708;SDS011;54933;51.908;7.730;2022-12-10T06:30:01;2.03;;;1.40;;
13708;SDS011;54933;51.908;7.730;2022-12-10T06:32:26;0.90;;;0.90;;
13708;SDS011;54933;51.908;7.730;2022-12-10T06:34:51;1.23;;;1.23;;
13708;SDS011;54933;51.908;7.730;2022-12-10T06:37:16;1.33;;;1.30;;
13708;SDS011;54933;51.908;7.730;2022-12-10T06:39:42;1.30;;;1.30;;
13708;SDS011;54933;51.908;7.730;2022-12-10T06:42:07;1.17;;;1.17;;
13708;SDS011;54933;51.908;7.730;2022-12-10T06:44:33;1.37;;;1.33;;
13708;SDS011;54933;51.908;7.730;2022-12-10T06:46:58;1.30;;;1.30;;
13708;SDS011;54933;51.908;7.730;2022-12-10T06:49:24;1.50;;;1.37;;
13708;SDS011;54933;51.908;7.730;2022-12-10T06:51:49;1.63;;;1.53;;
13708;SDS011;54933;51.908;7.730;2022-12-10T06:54:14;1.30;;;1.30;;
13708;SDS011;54933;51.908;7.730;2022-12-10T06:56:39;1.27;;;1.20;;
13708;SDS011;54933;51.908;7.730;2022-12-10T06:59:05;1.67;;;1.40;;
13708;SDS011;54933;51.908;7.730;2022-12-10T07:01:34;1.10;;;1.10;;
13708;SDS011;54933;51.908;7.730;2022-12-10T07:03:59;1.60;;;1.50;;
13708;SDS011;54933;51.908;7.730;2022-12-10T07:06:25;1.33;;;1.33;;
13708;SDS011;54933;51.908;7.730;2022-12-10T07:08:52;2.40;;;1.60;;
13708;SDS011;54933;51.908;7.730;2022-12-10T07:11:19;2.17;;;1.37;;
13708;SDS011;54933;51.908;7.730;2022-12-10T07:13:46;1.53;;;1.47;;
13708;SDS011;54933;51.908;7.730;2022-12-10T07:18:38;1.43;;;1.33;;
13708;SDS011;54933;51.908;7.730;2022-12-10T07:21:12;1.47;;;1.40;;
13708;SDS011;54933;51.908;7.730;2022-12-10T07:23:38;1.50;;;1.40;;
13708;SDS011;54933;51.908;7.730;2022-12-10T07:26:03;1.43;;;1.33;;
13708;SDS011;54933;51.908;7.730;2022-12-10T07:28:29;4.20;;;1.43;;
13708;SDS011;54933;51.908;7.730;2022-12-10T07:31:00;1.53;;;1.43;;
13708;SDS011;54933;51.908;7.730;2022-12-10T07:33:26;1.90;;;1.70;;
13708;SDS011;54933;51.908;7.730;2022-12-10T07:35:51;1.63;;;1.53;;
13708;SDS011;54933;51.908;7.730;2022-12-10T07:38:16;2.63;;;1.50;;
13708;SDS011;54933;51.908;7.730;2022-12-10T07:40:42;1.30;;;1.20;;
13708;SDS011;54933;51.908;7.730;2022-12-10T07:43:07;1.60;;;1.50;;
13708;SDS011;54933;51.908;7.730;2022-12-10T07:45:32;1.20;;;1.20;;
13708;SDS011;54933;51.908;7.730;2022-12-10T07:47:57;1.37;;;1.20;;
13708;SDS011;54933;51.908;7.730;2022-12-10T07:50:23;1.40;;;1.33;;
13708;SDS011;54933;51.908;7.730;2022-12-10T07:52:48;1.63;;;1.53;;
13708;SDS011;54933;51.908;7.730;2022-12-10T07:55:13;1.67;;;1.57;;
13708;SDS011;54933;51.908;7.730;2022-12-10T07:57:38;1.40;;;1.40;;
13708;SDS011;54933;51.908;7.730;2022-12-10T08:00:04;1.27;;;1.23;;
13708;SDS011;54933;51.908;7.730;2022-12-10T08:02:29;1.70;;;1.60;;
13708;SDS011;54933;51.908;7.730;2022-12-10T08:04:55;1.67;;;1.57;;
13708;SDS011;54933;51.908;7.730;2022-12-10T08:07:20;1.90;;;1.43;;
13708;SDS011;54933;51.908;7.730;2022-12-10T08:09:45;1.37;;;1.23;;
13708;SDS011;54933;51.908;7.730;2022-12-10T08:12:10;1.60;;;1.50;;
13708;SDS011;54933;51.908;7.730;2022-12-10T08:14:36;1.60;;;1.50;;
13708;SDS011;54933;51.908;7.730;2022-12-10T08:17:01;2.80;;;1.60;;
13708;SDS011;54933;51.908;7.730;2022-12-10T08:19:26;2.30;;;1.57;;
13708;SDS011;54933;51.908;7.730;2022-12-10T08:21:51;1.40;;;1.40;;
13708;SDS011;54933;51.908;7.730;2022-12-10T08:24:17;2.93;;;1.50;;
13708;SDS011;54933;51.908;7.730;2022-12-10T08:26:42;4.50;;;1.63;;
13708;SDS011;54933;51.908;7.730;2022-12-10T08:29:07;5.33;;;1.60;;
13708;SDS011;54933;51.908;7.730;2022-12-10T08:31:33;1.67;;;1.40;;
13708;SDS011;54933;51.908;7.730;2022-12-10T08:33:58;1.53;;;1.53;;
13708;SDS011;54933;51.908;7.730;2022-12-10T08:36:23;1.67;;;1.57;;
13708;SDS011;54933;51.908;7.730;2022-12-10T08:38:48;1.60;;;1.50;;
13708;SDS011;54933;51.908;7.730;2022-12-10T08:41:15;1.30;;;1.30;;
13708;SDS011;54933;51.908;7.730;2022-12-10T08:43:42;1.50;;;1.30;;
13708;SDS011;54933;51.908;7.730;2022-12-10T08:46:09;2.13;;;1.43;;
13708;SDS011;54933;51.908;7.730;2022-12-10T08:48:35;1.73;;;1.30;;
13708;SDS011;54933;51.908;7.730;2022-12-10T08:51:00;1.77;;;1.60;;
13708;SDS011;54933;51.908;7.730;2022-12-10T08:53:26;10.27;;;1.33;;
13708;SDS011;54933;51.908;7.730;2022-12-10T08:55:52;3.80;;;1.40;;
13708;SDS011;54933;51.908;7.730;2022-12-10T08:58:18;1.70;;;1.60;;
13708;SDS011;54933;51.908;7.730;2022-12-10T09:00:44;3.37;;;1.67;;
13708;SDS011;54933;51.908;7.730;2022-12-10T09:03:10;7.10;;;2.20;;
13708;SDS011;54933;51.908;7.730;2022-12-10T09:05:35;1.90;;;1.73;;
13708;SDS011;54933;51.908;7.730;2022-12-10T09:08:01;3.87;;;1.93;;
13708;SDS011;54933;51.908;7.730;2022-12-10T09:10:26;4.40;;;2.03;;
13708;SDS011;54933;51.908;7.730;2022-12-10T09:12:51;6.87;;;2.00;;
13708;SDS011;54933;51.908;7.730;2022-12-10T09:15:17;4.90;;;1.90;;
13708;SDS011;54933;51.908;7.730;2022-12-10T09:17:42;2.37;;;1.83;;
13708;SDS011;54933;51.908;7.730;2022-12-10T09:20:07;3.23;;;2.07;;
13708;SDS011;54933;51.908;7.730;2022-12-10T09:22:33;3.93;;;1.90;;
13708;SDS011;54933;51.908;7.730;2022-12-10T09:25:01;3.00;;;2.00;;
13708;SDS011;54933;51.908;7.730;2022-12-10T09:27:29;1.47;;;1.37;;
13708;SDS011;54933;51.908;7.730;2022-12-10T09:29:54;2.30;;;1.97;;
13708;SDS011;54933;51.908;7.730;2022-12-10T09:32:20;3.03;;;1.87;;
13708;SDS011;54933;51.908;7.730;2022-12-10T09:34:45;2.03;;;1.80;;
13708;SDS011;54933;51.908;7.730;2022-12-10T09:37:10;1.97;;;1.70;;
13708;SDS011;54933;51.908;7.730;2022-12-10T09:39:36;1.73;;;1.60;;
13708;SDS011;54933;51.908;7.730;2022-12-10T09:42:04;7.27;;;2.37;;
13708;SDS011;54933;51.908;7.730;2022-12-10T09:45:02;2.73;;;2.17;;
13708;SDS011;54933;51.908;7.730;2022-12-10T09:47:43;2.67;;;1.80;;
13708;SDS011;54933;51.908;7.730;2022-12-10T09:50:18;1.97;;;1.73;;
13708;SDS011;54933;51.908;7.730;2022-12-10T09:52:51;2.70;;;1.90;;
13708;SDS011;54933;51.908;7.730;2022-12-10T09:55:22;4.50;;;1.80;;
13708;SDS011;54933;51.908;7.730;2022-12-10T09:57:56;8.07;;;2.60;;
13708;SDS011;54933;51.908;7.730;2022-12-10T10:00:25;6.53;;;2.10;;
13708;SDS011;54933;51.908;7.730;2022-12-10T10:02:55;2.90;;;2.03;;
13708;SDS011;54933;51.908;7.730;2022-12-10T10:05:27;4.00;;;1.90;;
13708;SDS011;54933;51.908;7.730;2022-12-10T10:07:55;5.93;;;2.27;;
13708;SDS011;54933;51.908;7.730;2022-12-10T10:12:48;24.87;;;2.87;;
13708;SDS011;54933;51.908;7.730;2022-12-10T10:15:18;17.43;;;3.73;;
13708;SDS011;54933;51.908;7.730;2022-12-10T10:17:48;17.57;;;4.13;;
13708;SDS011;54933;51.908;7.730;2022-12-10T10:20:19;26.33;;;3.83;;
13708;SDS011;54933;51.908;7.730;2022-12-10T10:22:45;34.60;;;4.17;;
13708;SDS011;54933;51.908;7.730;2022-12-10T10:25:15;27.37;;;3.83;;
13708;SDS011;54933;51.908;7.730;2022-12-10T10:27:42;23.43;;;3.53;;
13708;SDS011;54933;51.908;7.730;2022-12-10T10:30:13;18.30;;;3.47;;
13708;SDS011;54933;51.908;7.730;2022-12-10T10:35:18;20.67;;;3.27;;
13708;SDS011;54933;51.908;7.730;2022-12-10T10:38:12;16.20;;;2.87;;
13708;SDS011;54933;51.908;7.730;2022-12-10T10:40:42;14.30;;;2.93;;
13708;SDS011;54933;51.908;7.730;2022-12-10T10:43:14;15.53;;;3.33;;
13708;SDS011;54933;51.908;7.730;2022-12-10T10:45:47;18.77;;;2.33;;
13708;SDS011;54933;51.908;7.730;2022-12-10T10:48:17;21.93;;;3.50;;
13708;SDS011;54933;51.908;7.730;2022-12-10T10:50:52;15.63;;;3.23;;
13708;SDS011;54933;51.908;7.730;2022-12-10T10:53:24;10.93;;;3.47;;
13708;SDS011;54933;51.908;7.730;2022-12-10T10:55:49;12.73;;;2.70;;
13708;SDS011;54933;51.908;7.730;2022-12-10T10:58:18;11.07;;;2.93;;
13708;SDS011;54933;51.908;7.730;2022-12-10T11:00:58;12.43;;;2.97;;
13708;SDS011;54933;51.908;7.730;2022-12-10T11:03:32;14.80;;;2.60;;
13708;SDS011;54933;51.908;7.730;2022-12-10T11:05:59;9.77;;;2.60;;
13708;SDS011;54933;51.908;7.730;2022-12-10T11:08:28;6.30;;;2.33;;
13708;SDS011;54933;51.908;7.730;2022-12-10T11:11:02;3.30;;;2.17;;
13708;SDS011;54933;51.908;7.730;2022-12-10T11:13:31;13.63;;;2.50;;
13708;SDS011;54933;51.908;7.730;2022-12-10T11:16:02;4.70;;;2.30;;
13708;SDS011;54933;51.908;7.730;2022-12-10T11:18:51;8.97;;;2.97;;
13708;SDS011;54933;51.908;7.730;2022-12-10T11:21:20;3.23;;;1.87;;
13708;SDS011;54933;51.908;7.730;2022-12-10T11:23:56;4.67;;;2.00;;
13708;SDS011;54933;51.908;7.730;2022-12-10T11:31:38;15.57;;;6.30;;
13708;SDS011;54933;51.908;7.730;2022-12-10T11:39:52;16.20;;;6.80;;
13708;SDS011;54933;51.908;7.730;2022-12-10T11:45:07;20.43;;;7.53;;
13708;SDS011;54933;51.908;7.730;2022-12-10T11:47:46;17.77;;;6.87;;
13708;SDS011;54933;51.908;7.730;2022-12-10T11:53:42;12.23;;;6.83;;
13708;SDS011;54933;51.908;7.730;2022-12-10T11:56:37;17.57;;;8.10;;
13708;SDS011;54933;51.908;7.730;2022-12-10T12:01:59;19.77;;;9.00;;
13708;SDS011;54933;51.908;7.730;2022-12-10T12:07:55;17.53;;;9.13;;
13708;SDS011;54933;51.908;7.730;2022-12-10T12:15:57;23.33;;;9.87;;
13708;SDS011;54933;51.908;7.730;2022-12-10T12:21:23;16.63;;;9.00;;
13708;SDS011;54933;51.908;7.730;2022-12-10T12:23:50;19.07;;;9.83;;
13708;SDS011;54933;51.908;7.730;2022-12-10T12:26:30;21.70;;;10.10;;
13708;SDS011;54933;51.908;7.730;2022-12-10T12:29:10;19.53;;;8.97;;
13708;SDS011;54933;51.908;7.730;2022-12-10T12:31:42;27.70;;;9.27;;
13708;SDS011;54933;51.908;7.730;2022-12-10T12:34:26;21.47;;;8.13;;
13708;SDS011;54933;51.908;7.730;2022-12-10T12:36:58;22.17;;;8.33;;
13708;SDS011;54933;51.908;7.730;2022-12-10T12:39:38;24.90;;;8.70;;
13708;SDS011;54933;51.908;7.730;2022-12-10T12:42:17;25.87;;;9.40;;
13708;SDS011;54933;51.908;7.730;2022-12-10T12:51:09;22.20;;;8.50;;
13708;SDS011;54933;51.908;7.730;2022-12-10T12:53:39;21.73;;;7.87;;
13708;SDS011;54933;51.908;7.730;2022-12-10T12:58:46;23.47;;;8.00;;
13708;SDS011;54933;51.908;7.730;2022-12-10T13:03:51;21.90;;;7.80;;
13708;SDS011;54933;51.908;7.730;2022-12-10T13:06:36;34.10;;;9.20;;
13708;SDS011;54933;51.908;7.730;2022-12-10T13:11:38;21.97;;;8.10;;
13708;SDS011;54933;51.908;7.730;2022-12-10T13:27:48;16.20;;;6.67;;
13708;SDS011;54933;51.908;7.730;2022-12-10T13:33:11;18.53;;;7.27;;
13708;SDS011;54933;51.908;7.730;2022-12-10T13:35:49;15.13;;;7.83;;
13708;SDS011;54933;51.908;7.730;2022-12-10T13:38:21;16.57;;;7.67;;
13708;SDS011;54933;51.908;7.730;2022-12-10T13:41:02;14.17;;;7.47;;
13708;SDS011;54933;51.908;7.730;2022-12-10T13:43:52;15.87;;;6.93;;
13708;SDS011;54933;51.908;7.730;2022-12-10T13:46:55;15.60;;;7.43;;
13708;SDS011;54933;51.908;7.730;2022-12-10T13:49:24;17.73;;;7.50;;
13708;SDS011;54933;51.908;7.730;2022-12-10T13:51:57;18.00;;;7.93;;
13708;SDS011;54933;51.908;7.730;2022-12-10T13:54:38;28.17;;;13.57;;
13708;SDS011;54933;51.908;7.730;2022-12-10T13:57:30;56.50;;;22.60;;
13708;SDS011;54933;51.908;7.730;2022-12-10T14:00:17;57.20;;;20.37;;
13708;SDS011;54933;51.908;7.730;2022-12-10T14:03:16;33.83;;;17.07;;
13708;SDS011;54933;51.908;7.730;2022-12-10T14:06:18;34.30;;;14.60;;
13708;SDS011;54933;51.908;7.730;2022-12-10T14:08:51;32.43;;;13.93;;
13708;SDS011;54933;51.908;7.730;2022-12-10T14:11:28;29.43;;;12.90;;
13708;SDS011;54933;51.908;7.730;2022-12-10T14:13:58;31.80;;;13.90;;
13708;SDS011;54933;51.908;7.730;2022-12-10T14:16:27;24.40;;;11.93;;
13708;SDS011;54933;51.908;7.730;2022-12-10T14:18:56;32.00;;;11.40;;
13708;SDS011;54933;51.908;7.730;2022-12-10T14:21:27;26.80;;;11.93;;
13708;SDS011;54933;51.908;7.730;2022-12-10T14:24:00;27.93;;;11.17;;
13708;SDS011;54933;51.908;7.730;2022-12-10T14:26:30;21.87;;;10.77;;
13708;SDS011;54933;51.908;7.730;2022-12-10T14:31:35;20.07;;;9.40;;
13708;SDS011;54933;51.908;7.730;2022-12-10T14:34:05;15.77;;;8.13;;
13708;SDS011;54933;51.908;7.730;2022-12-10T14:36:39;20.60;;;8.70;;
13708;SDS011;54933;51.908;7.730;2022-12-10T14:39:24;20.03;;;9.10;;
13708;SDS011;54933;51.908;7.730;2022-12-10T14:41:54;24.77;;;8.70;;
13708;SDS011;54933;51.908;7.730;2022-12-10T14:44:22;18.40;;;8.87;;
13708;SDS011;54933;51.908;7.730;2022-12-10T14:46:48;17.00;;;8.83;;
13708;SDS011;54933;51.908;7.730;2022-12-10T14:49:15;15.70;;;8.30;;
13708;SDS011;54933;51.908;7.730;2022-12-10T14:51:48;15.97;;;7.90;;
13708;SDS011;54933;51.908;7.730;2022-12-10T14:54:24;170.70;;;28.97;;
13708;SDS011;54933;51.908;7.730;2022-12-10T14:56:50;122.70;;;23.03;;
13708;SDS011;54933;51.908;7.730;2022-12-10T15:00:03;53.27;;;15.17;;
13708;SDS011;54933;51.908;7.730;2022-12-10T15:02:14;48.77;;;11.93;;
13708;SDS011;54933;51.908;7.730;2022-12-10T15:04:47;55.13;;;12.47;;
13708;SDS011;54933;51.908;7.730;2022-12-10T15:07:14;36.23;;;12.30;;
13708;SDS011;54933;51.908;7.730;2022-12-10T15:09:43;32.97;;;12.00;;
13708;SDS011;54933;51.908;7.730;2022-12-10T15:12:19;51.43;;;11.33;;
13708;SDS011;54933;51.908;7.730;2022-12-10T15:15:12;32.47;;;10.50;;
13708;SDS011;54933;51.908;7.730;2022-12-10T15:17:42;36.63;;;11.07;;
13708;SDS011;54933;51.908;7.730;2022-12-10T15:20:18;34.73;;;9.63;;
13708;SDS011;54933;51.908;7.730;2022-12-10T15:22:45;29.53;;;9.87;;
13708;SDS011;54933;51.908;7.730;2022-12-10T15:25:17;35.07;;;9.33;;
13708;SDS011;54933;51.908;7.730;2022-12-10T15:27:53;22.80;;;8.47;;
13708;SDS011;54933;51.908;7.730;2022-12-10T15:30:24;30.70;;;8.67;;
13708;SDS011;54933;51.908;7.730;2022-12-10T15:32:57;22.77;;;8.70;;
13708;SDS011;54933;51.908;7.730;2022-12-10T15:35:22;17.53;;;8.17;;
13708;SDS011;54933;51.908;7.730;2022-12-10T15:37:47;25.97;;;8.57;;
13708;SDS011;54933;51.908;7.730;2022-12-10T15:40:29;24.90;;;7.80;;
13708;SDS011;54933;51.908;7.730;2022-12-10T15:45:57;15.87;;;7.30;;
13708;SDS011;54933;51.908;7.730;2022-12-10T15:48:23;13.20;;;7.20;;
13708;SDS011;54933;51.908;7.730;2022-12-10T15:50:51;21.37;;;7.10;;
13708;SDS011;54933;51.908;7.730;2022-12-10T15:53:20;16.27;;;6.33;;
13708;SDS011;54933;51.908;7.730;2022-12-10T15:55:51;16.30;;;7.67;;
13708;SDS011;54933;51.908;7.730;2022-12-10T15:58:16;13.50;;;7.00;;
13708;SDS011;54933;51.908;7.730;2022-12-10T16:00:41;13.27;;;6.43;;
13708;SDS011;54933;51.908;7.730;2022-12-10T16:03:13;13.43;;;6.87;;
13708;SDS011;54933;51.908;7.730;2022-12-10T16:05:40;20.70;;;6.27;;
13708;SDS011;54933;51.908;7.730;2022-12-10T16:08:11;14.57;;;6.30;;
13708;SDS011;54933;51.908;7.730;2022-12-10T16:10:37;15.83;;;7.30;;
13708;SDS011;54933;51.908;7.730;2022-12-10T16:13:04;15.07;;;6.90;;
13708;SDS011;54933;51.908;7.730;2022-12-10T16:15:35;10.77;;;6.23;;
13708;SDS011;54933;51.908;7.730;2022-12-10T16:18:08;11.33;;;5.87;;
13708;SDS011;54933;51.908;7.730;2022-12-10T16:20:35;10.63;;;6.57;;
13708;SDS011;54933;51.908;7.730;2022-12-10T16:23:00;16.40;;;6.43;;
13708;SDS011;54933;51.908;7.730;2022-12-10T16:25:27;13.80;;;6.83;;
13708;SDS011;54933;51.908;7.730;2022-12-10T16:27:55;15.33;;;6.50;;